createdAt,value
2023-04-04T00:04:07.306Z,3.67
2023-04-04T00:14:09.440Z,3.20
2023-04-04T00:24:11.381Z,6.18
2023-04-04T00:34:13.237Z,2.63
2023-04-04T00:44:15.315Z,3.75
2023-04-04T00:54:17.281Z,2.78
2023-04-04T01:04:19.160Z,3.33
2023-04-04T01:14:21.270Z,3.25
2023-04-04T01:24:26.061Z,2.47
2023-04-04T01:34:54.058Z,6.80
2023-04-04T01:44:56.860Z,4.68
2023-04-04T01:55:03.996Z,7.93
2023-04-04T02:05:06.713Z,2.85
2023-04-04T02:15:09.250Z,6.95
2023-04-04T02:25:11.182Z,3.80
2023-04-04T02:35:13.027Z,5.50
2023-04-04T02:45:16.006Z,7.63
2023-04-04T02:55:25.291Z,2.55
2023-04-04T03:05:27.657Z,2.78
2023-04-04T03:15:29.586Z,4.43
2023-04-04T03:25:31.582Z,3.85
2023-04-04T03:35:37.768Z,5.78
2023-04-04T03:45:39.836Z,4.25
2023-04-04T03:55:43.258Z,6.28
2023-04-04T04:05:45.159Z,6.40
2023-04-04T04:15:47.192Z,7.30
2023-04-04T04:25:55.057Z,3.88
2023-04-04T04:36:06.878Z,3.60
2023-04-04T04:46:19.855Z,5.22
2023-04-04T04:56:21.878Z,4.68
2023-04-04T05:06:26.832Z,5.65
2023-04-04T05:16:29.945Z,6.03
2023-04-04T05:26:33.338Z,7.55
2023-04-04T05:36:35.977Z,3.53
2023-04-04T05:46:40.906Z,4.95
2023-04-04T05:56:42.913Z,3.15
2023-04-04T06:06:56.911Z,6.25
2023-04-04T06:16:59.408Z,4.68
2023-04-04T06:27:01.786Z,5.03
2023-04-04T06:37:03.914Z,3.75
2023-04-04T06:47:12.392Z,5.35
2023-04-04T06:57:14.487Z,3.80
2023-04-04T07:07:16.453Z,2.85
2023-04-04T07:17:24.744Z,2.88
2023-04-04T07:27:27.327Z,3.30
2023-04-04T07:37:29.126Z,3.58
2023-04-04T07:47:30.950Z,2.40
2023-04-04T07:57:41.626Z,3.80
2023-04-04T08:07:43.600Z,3.03
2023-04-04T08:17:45.490Z,3.75
2023-04-04T08:27:47.437Z,4.10
2023-04-04T08:37:49.208Z,3.00
2023-04-04T08:47:54.530Z,3.08
2023-04-04T08:57:56.521Z,18.83
2023-04-04T09:07:59.173Z,8.52
2023-04-04T09:18:01.119Z,4.47
2023-04-04T09:28:04.230Z,4.25
2023-04-04T09:38:06.507Z,3.20
2023-04-04T09:48:08.508Z,4.05
2023-04-04T09:58:16.105Z,3.60
2023-04-04T10:08:21.409Z,2.58
2023-04-04T10:18:28.355Z,3.47
2023-04-04T10:28:30.229Z,4.43
2023-04-04T10:38:42.059Z,4.47
2023-04-04T10:48:44.957Z,3.50
2023-04-04T10:58:46.792Z,3.30
2023-04-04T11:08:54.695Z,4.72
2023-04-04T11:19:00.056Z,3.35
2023-04-04T11:29:05.960Z,5.15
2023-04-04T11:39:27.521Z,3.33
2023-04-04T11:49:30.230Z,4.60
2023-04-04T11:59:32.309Z,2.88
2023-04-04T12:09:36.087Z,2.60
2023-04-04T12:19:39.381Z,3.78
2023-04-04T12:29:41.348Z,3.88
2023-04-04T12:39:50.824Z,4.47
2023-04-04T12:59:55.528Z,5.45
2023-04-04T13:10:03.419Z,3.53
2023-04-04T13:20:05.838Z,3.90
2023-04-04T13:30:10.381Z,5.90
2023-04-04T13:40:13.442Z,5.13
2023-04-04T13:50:15.355Z,3.72
2023-04-04T14:00:17.576Z,6.82
2023-04-04T14:10:19.589Z,4.35
2023-04-04T14:20:21.433Z,2.40
2023-04-04T14:30:23.255Z,4.78
2023-04-04T14:40:25.030Z,7.10
2023-04-04T14:50:26.982Z,5.07
2023-04-04T15:00:28.928Z,4.60
2023-04-04T15:10:30.858Z,4.85
2023-04-04T15:20:32.720Z,22.33
2023-04-04T15:30:34.712Z,7.03
2023-04-04T15:40:36.582Z,6.32
2023-04-04T15:50:38.699Z,4.60
2023-04-04T16:00:46.171Z,4.20
2023-04-04T16:10:48.160Z,4.82
2023-04-04T16:20:50.081Z,5.40
2023-04-04T16:30:51.943Z,5.72
2023-04-04T16:40:53.828Z,8.02
2023-04-04T16:50:56.445Z,7.47
2023-04-04T17:00:58.682Z,4.65
2023-04-04T17:11:00.592Z,6.07
2023-04-04T17:21:02.455Z,7.18
2023-04-04T17:31:05.910Z,7.05
2023-04-04T17:41:07.893Z,5.35
2023-04-04T17:51:09.736Z,8.63
2023-04-04T18:01:11.671Z,8.43
2023-04-04T18:11:13.528Z,6.18
2023-04-04T18:21:15.358Z,7.55
2023-04-04T18:31:17.260Z,9.00
2023-04-04T18:41:20.255Z,6.93
2023-04-04T18:51:23.548Z,8.75
2023-04-04T19:01:25.702Z,15.30
2023-04-04T19:11:27.478Z,10.77
2023-04-04T19:21:29.382Z,28.85
2023-04-04T19:31:32.194Z,27.02
2023-04-04T19:41:36.542Z,11.27
2023-04-04T19:51:39.877Z,19.67
2023-04-04T20:01:47.470Z,18.30
2023-04-04T20:12:00.021Z,17.85
2023-04-04T20:22:02.471Z,21.92
2023-04-04T20:32:07.834Z,20.65
2023-04-04T20:42:31.233Z,20.73
2023-04-04T20:52:33.247Z,15.52
2023-04-04T21:02:35.134Z,20.10
2023-04-04T21:12:36.963Z,15.60
2023-04-04T21:22:38.781Z,16.05
2023-04-04T21:32:40.699Z,21.40
2023-04-04T21:42:42.583Z,22.13
2023-04-04T21:52:44.364Z,27.88
2023-04-04T22:02:46.228Z,22.42
2023-04-04T22:12:50.964Z,21.20
2023-04-04T22:22:52.856Z,21.23
2023-04-04T22:32:55.744Z,16.08
2023-04-04T22:42:58.179Z,15.52
2023-04-04T22:52:59.991Z,12.63
2023-04-04T23:03:01.979Z,17.45
2023-04-04T23:13:04.016Z,19.85
2023-04-04T23:23:05.871Z,17.77
2023-04-04T23:33:07.880Z,19.60
2023-04-04T23:43:09.834Z,18.77
2023-04-04T23:53:12.087Z,20.40
